ADDS METAR Data

Data at: 0528 UTC 19 Jan 2018

METAR for:KAUG (Augusta/State Arpt, ME, US)
Text:KAUG 190453Z AUTO 25003KT 10SM CLR M08/M11 A2988 RMK AO2 SLP123 T10781106 410111089
Temperature: -7.8°C ( 18°F)
Dewpoint:-10.6°C ( 13°F) [RH = 80%]
Pressure (altimeter):29.88 inches Hg (1011.9 mb) [Sea level pressure: 1012.3 mb]
Winds:from the WSW (250 degrees) at 3 MPH (3 knots; 1.5 m/s)
Visibility:10 or more sm (16+ km)
Ceiling:at least 12,000 feet AGL
Clouds:sky clear below 12,000 feet AGL
QC Flag:automated observation with no human augmentation